Time;durP1;ratioP1;P1;durP2;ratioP2;P2;SDS_P1;SDS_P2;PMS_P1;PMS_P2;Temp;Humidity;BMP_temperature;BMP_pressure;BME280_temperature;BME280_humidity;BME280_pressure;Samples;Min_cycle;Max_cycle;Signal;HPM_P1;HPM_P2
2022/09/05 00:00:05;;;;;;;9.95;5.22;;;;;;;16.67;100.00;97050.19;5075027;28;20065;-75
2022/09/05 00:03:19;;;;;;;8.52;5.57;;;;;;;16.60;100.00;97051.53;5075909;28;20055;-75
2022/09/05 00:06:00;;;;;;;12.25;6.15;;;;;;;16.52;100.00;97052.91;5066544;28;20036;-75
2022/09/05 00:08:49;;;;;;;12.82;5.97;;;;;;;16.44;100.00;97051.56;5075219;28;20048;-75
2022/09/05 00:11:29;;;;;;;11.63;6.35;;;;;;;16.32;100.00;97056.41;5079168;28;20039;-75
2022/09/05 00:14:26;;;;;;;10.77;5.95;;;;;;;16.34;100.00;97048.88;5078498;28;20040;-75
2022/09/05 00:16:54;;;;;;;12.18;5.80;;;;;;;16.41;100.00;97043.97;5078254;28;20059;-75
2022/09/05 00:19:51;;;;;;;12.98;6.80;;;;;;;16.42;100.00;97045.63;5078014;28;20028;-75
2022/09/05 00:22:46;;;;;;;11.00;5.15;;;;;;;16.61;100.00;97031.53;5075840;28;20917;-75
2022/09/05 00:25:35;;;;;;;9.23;5.60;;;;;;;16.76;100.00;97034.25;5074890;28;20035;-75
2022/09/05 00:28:13;;;;;;;10.18;5.28;;;;;;;16.83;100.00;97032.06;5077795;28;20045;-75
2022/09/05 00:30:57;;;;;;;13.07;5.95;;;;;;;16.88;100.00;97031.22;5076150;28;20343;-75
2022/09/05 00:33:35;;;;;;;12.23;5.80;;;;;;;16.85;100.00;97023.69;5073847;28;20694;-75
2022/09/05 00:36:26;;;;;;;12.05;6.20;;;;;;;16.81;100.00;97030.72;5075040;28;20506;-75
2022/09/05 00:38:59;;;;;;;13.63;5.68;;;;;;;16.83;100.00;97021.25;5075080;28;20497;-75
2022/09/05 00:41:27;;;;;;;13.85;6.10;;;;;;;16.86;100.00;97028.00;5072814;28;20089;-75
2022/09/05 00:43:54;;;;;;;13.20;5.68;;;;;;;16.91;100.00;97025.28;5075220;28;20517;-75
2022/09/05 00:46:33;;;;;;;11.80;6.45;;;;;;;16.84;100.00;97022.88;5072026;28;20044;-75
2022/09/05 00:49:21;;;;;;;9.70;6.28;;;;;;;16.74;100.00;97024.81;5075692;28;20039;-75
2022/09/05 00:52:03;;;;;;;13.40;6.03;;;;;;;16.70;100.00;97027.22;5064142;28;20039;-75
2022/09/05 00:54:49;;;;;;;11.85;6.00;;;;;;;16.76;100.00;97020.72;5076831;28;20387;-75
2022/09/05 00:57:37;;;;;;;9.95;5.75;;;;;;;16.78;100.00;97020.47;5075470;28;20054;-75
2022/09/05 01:00:08;;;;;;;10.48;5.88;;;;;;;16.81;100.00;97018.03;5078299;28;20300;-75
2022/09/05 01:03:08;;;;;;;12.18;5.60;;;;;;;16.83;100.00;97015.84;5076059;28;20050;-75
2022/09/05 01:06:03;;;;;;;11.55;6.45;;;;;;;16.85;100.00;97023.69;5078116;28;20452;-75
2022/09/05 01:08:37;;;;;;;13.63;6.82;;;;;;;16.92;100.00;97022.31;5072614;28;20130;-75
2022/09/05 01:11:05;;;;;;;12.13;6.35;;;;;;;16.84;100.00;97020.16;5074410;28;20433;-75
2022/09/05 01:13:39;;;;;;;12.70;6.50;;;;;;;16.67;100.00;97022.34;5074977;28;20055;-75
2022/09/05 01:16:34;;;;;;;12.95;6.78;;;;;;;16.60;100.00;97024.53;5073189;28;20056;-75
2022/09/05 01:19:15;;;;;;;14.70;6.97;;;;;;;16.39;100.00;97038.03;5075704;28;20075;-74
2022/09/05 01:21:50;;;;;;;12.60;6.55;;;;;;;16.29;100.00;97021.84;5063756;28;20343;-74
2022/09/05 01:25:00;;;;;;;10.13;6.38;;;;;;;16.23;100.00;97028.34;5073262;28;20032;-74
2022/09/05 01:27:53;;;;;;;12.48;6.68;;;;;;;16.08;100.00;97031.03;5063882;28;20048;-74
2022/09/05 01:30:42;;;;;;;14.02;7.03;;;;;;;15.90;100.00;97023.47;5071559;28;20048;-74
2022/09/05 01:33:42;;;;;;;16.70;7.90;;;;;;;15.71;100.00;97031.25;5045471;28;20082;-74
2022/09/05 01:39:57;;;;;;;15.55;7.97;;;;;;;15.48;100.00;97037.91;5074680;28;20444;-75
2022/09/05 01:42:49;;;;;;;12.40;7.75;;;;;;;15.54;100.00;97037.66;5071023;28;20050;-75
2022/09/05 01:45:19;;;;;;;12.30;7.80;;;;;;;15.54;100.00;97031.47;5068375;28;20036;-75
2022/09/05 01:48:12;;;;;;;14.40;7.68;;;;;;;15.51;100.00;97030.13;5072452;28;20031;-75
2022/09/05 01:51:11;;;;;;;11.90;7.82;;;;;;;15.43;100.00;97030.63;5072198;28;20327;-74
2022/09/05 01:54:11;;;;;;;15.35;7.93;;;;;;;15.23;100.00;97036.75;5075552;28;20212;-75
2022/09/05 01:56:51;;;;;;;14.73;7.72;;;;;;;15.26;100.00;97021.97;5077690;28;20464;-75
2022/09/05 01:59:38;;;;;;;13.48;7.60;;;;;;;15.35;100.00;97019.56;5072409;28;20040;-75
2022/09/05 02:02:22;;;;;;;17.98;8.40;;;;;;;15.28;100.00;97012.53;5067889;28;20051;-76
2022/09/05 02:05:06;;;;;;;18.00;7.78;;;;;;;15.27;100.00;97027.06;5072662;28;20059;-76
2022/09/05 02:07:54;;;;;;;16.60;7.53;;;;;;;15.16;100.00;97025.41;5063965;28;20432;-76
2022/09/05 02:14:00;;;;;;;13.57;7.40;;;;;;;15.05;100.00;97029.13;5074122;28;20433;-76
2022/09/05 02:16:29;;;;;;;11.75;7.72;;;;;;;15.11;100.00;97028.09;5067593;28;20117;-76
2022/09/05 02:19:19;;;;;;;12.88;7.25;;;;;;;15.19;100.00;97026.78;5071728;28;20129;-76
2022/09/05 02:22:05;;;;;;;11.90;7.10;;;;;;;15.36;100.00;97029.25;5068652;28;20071;-76
2022/09/05 02:24:31;;;;;;;14.05;8.38;;;;;;;15.32;100.00;97026.25;5074107;28;20270;-76
2022/09/05 02:27:24;;;;;;;16.08;8.60;;;;;;;15.26;100.00;97027.34;5069915;28;20070;-76
2022/09/05 02:30:00;;;;;;;12.05;7.65;;;;;;;15.19;100.00;97024.91;5071273;28;20036;-76
2022/09/05 02:32:37;;;;;;;14.05;7.97;;;;;;;15.18;100.00;97027.84;5067274;28;20044;-76
2022/09/05 02:35:19;;;;;;;13.52;7.50;;;;;;;15.17;100.00;97028.91;5088195;27;20060;-76
2022/09/05 02:37:58;;;;;;;13.85;7.90;;;;;;;15.10;100.00;97031.03;5067497;28;20047;-76
2022/09/05 02:40:43;;;;;;;13.05;7.43;;;;;;;15.11;100.00;97036.19;5071429;28;20156;-76
2022/09/05 02:46:59;;;;;;;12.98;7.30;;;;;;;15.13;100.00;97019.75;5067841;28;20552;-76
2022/09/05 02:49:54;;;;;;;13.27;7.47;;;;;;;15.10;100.00;97023.78;5069980;28;20045;-76
2022/09/05 02:52:25;;;;;;;16.75;7.18;;;;;;;15.09;100.00;97030.22;5076387;28;20640;-76
2022/09/05 02:54:54;;;;;;;17.63;8.15;;;;;;;14.96;100.00;97028.03;5071257;28;20616;-76
2022/09/05 02:57:47;;;;;;;13.52;7.95;;;;;;;14.83;100.00;97028.50;5068650;28;20028;-76
2022/09/05 03:00:22;;;;;;;16.52;8.73;;;;;;;14.73;100.00;97032.75;5071380;28;20512;-76
2022/09/05 03:03:17;;;;;;;13.93;7.78;;;;;;;14.71;100.00;97021.44;5073089;28;20449;-76
2022/09/05 03:05:49;;;;;;;12.35;7.18;;;;;;;14.82;100.00;97029.56;5069676;28;20047;-76
2022/09/05 03:08:42;;;;;;;14.40;7.20;;;;;;;14.87;100.00;97027.72;5040514;28;20294;-76
2022/09/05 03:11:39;;;;;;;18.15;7.70;;;;;;;14.98;100.00;97028.56;5071451;28;20111;-76
2022/09/05 03:14:26;;;;;;;14.23;7.15;;;;;;;15.02;100.00;97026.97;5069283;28;20043;-76
2022/09/05 03:17:20;;;;;;;14.35;7.05;;;;;;;15.06;100.00;97025.38;5104169;27;20047;-76
2022/09/05 03:19:55;;;;;;;12.55;6.53;;;;;;;15.13;100.00;97020.56;5071734;28;20427;-76
2022/09/05 03:22:46;;;;;;;14.90;7.18;;;;;;;15.20;100.00;97018.44;5069936;28;20032;-76
2022/09/05 03:25:33;;;;;;;15.35;6.95;;;;;;;15.24;100.00;97022.19;5057141;28;20135;-76
2022/09/05 03:28:42;;;;;;;15.65;7.55;;;;;;;15.21;100.00;97033.53;5073720;28;20355;-76
2022/09/05 03:31:23;;;;;;;11.55;7.32;;;;;;;15.18;100.00;97022.47;5032310;28;20481;-76
2022/09/05 03:34:05;;;;;;;12.85;6.95;;;;;;;15.16;100.00;97024.59;5073574;28;20321;-76
2022/09/05 03:37:05;;;;;;;15.20;6.60;;;;;;;15.18;100.00;97025.16;5074935;28;20036;-77
2022/09/05 03:39:43;;;;;;;12.00;7.43;;;;;;;15.16;100.00;97025.41;5074379;28;20032;-76
2022/09/05 03:42:12;;;;;;;14.07;7.15;;;;;;;15.17;100.00;97032.41;5054305;28;20592;-76
2022/09/05 03:45:13;;;;;;;13.65;7.03;;;;;;;15.18;100.00;97030.56;5071523;28;20139;-76
2022/09/05 03:48:00;;;;;;;17.42;8.02;;;;;;;15.07;100.00;97029.69;5065965;28;20052;-76
2022/09/05 03:51:07;;;;;;;15.65;7.85;;;;;;;14.99;100.00;97032.88;5075880;28;20039;-76
2022/09/05 03:54:14;;;;;;;17.27;7.88;;;;;;;14.91;100.00;97031.50;5041167;28;20354;-76
2022/09/05 03:57:01;;;;;;;14.55;7.80;;;;;;;14.84;100.00;97035.50;5072400;28;20406;-76
2022/09/05 03:59:46;;;;;;;18.75;9.07;;;;;;;14.86;100.00;97026.06;5056135;28;20040;-76
2022/09/05 04:02:17;;;;;;;18.35;7.45;;;;;;;14.75;100.00;97027.91;5072724;28;20132;-76
2022/09/05 04:05:10;;;;;;;21.58;10.82;;;;;;;14.68;100.00;97023.81;5073704;28;20125;-76
2022/09/05 04:07:46;;;;;;;15.05;7.97;;;;;;;14.59;100.00;97036.16;5074815;28;20128;-76
2022/09/05 04:11:01;;;;;;;18.27;8.02;;;;;;;14.46;100.00;97035.53;5075194;28;20364;-76
2022/09/05 04:13:36;;;;;;;16.67;8.23;;;;;;;14.40;100.00;97033.06;5030384;28;20041;-76
2022/09/05 04:16:32;;;;;;;16.83;8.20;;;;;;;14.38;100.00;97041.38;5069276;28;20052;-76
2022/09/05 04:19:16;;;;;;;16.08;8.50;;;;;;;14.40;100.00;97031.19;5071879;28;20052;-76
2022/09/05 04:22:03;;;;;;;13.80;8.38;;;;;;;14.35;100.00;97043.78;5073787;28;20055;-76
2022/09/05 04:24:52;;;;;;;16.90;8.73;;;;;;;14.30;100.00;97041.03;5074313;28;20048;-76
2022/09/05 04:27:51;;;;;;;17.90;7.97;;;;;;;14.17;100.00;97043.13;5073188;28;20071;-76
2022/09/05 04:30:39;;;;;;;12.70;7.85;;;;;;;14.18;100.00;97046.63;5059227;28;20047;-76
2022/09/05 04:33:31;;;;;;;15.40;7.72;;;;;;;14.13;100.00;97041.19;5074389;28;20048;-76
2022/09/05 04:36:13;;;;;;;16.83;8.00;;;;;;;14.13;100.00;97038.50;5071864;28;20139;-76
2022/09/05 04:38:41;;;;;;;18.58;8.25;;;;;;;14.13;100.00;97033.91;5073847;28;20039;-76
2022/09/05 04:41:17;;;;;;;16.67;8.25;;;;;;;14.14;100.00;97040.13;5073348;28;20087;-76
2022/09/05 04:43:48;;;;;;;15.05;7.22;;;;;;;14.20;100.00;97031.81;5076812;28;20661;-76
2022/09/05 04:46:21;;;;;;;15.15;8.40;;;;;;;14.25;100.00;97046.41;5072698;28;20567;-76
2022/09/05 04:49:22;;;;;;;13.80;7.95;;;;;;;14.31;100.00;97050.72;5071432;28;20040;-76
2022/09/05 04:52:15;;;;;;;22.27;8.30;;;;;;;14.37;100.00;97053.22;5060691;28;20059;-76
2022/09/05 04:55:00;;;;;;;12.55;7.45;;;;;;;14.43;100.00;97054.88;5075082;28;20304;-76
2022/09/05 04:57:44;;;;;;;16.42;8.05;;;;;;;14.45;100.00;97051.94;5069685;28;20145;-76
2022/09/05 05:00:25;;;;;;;15.30;8.30;;;;;;;14.49;100.00;97051.19;5071663;28;20035;-76
2022/09/05 05:03:03;;;;;;;11.52;7.22;;;;;;;14.41;100.00;97059.72;5056611;28;20520;-75
2022/09/05 05:05:50;;;;;;;16.90;8.18;;;;;;;14.40;100.00;97060.78;5043554;28;20150;-75
2022/09/05 05:08:16;;;;;;;11.73;7.40;;;;;;;14.37;100.00;97068.56;5036482;28;20370;-74
2022/09/05 05:10:49;;;;;;;12.25;7.50;;;;;;;14.33;100.00;97067.47;5048179;28;20032;-74
2022/09/05 05:13:32;;;;;;;16.48;8.50;;;;;;;14.38;100.00;97068.28;5042563;28;20070;-74
2022/09/05 05:16:29;;;;;;;17.10;8.10;;;;;;;14.42;100.00;97068.59;5044382;28;20348;-75
2022/09/05 05:19:25;;;;;;;18.00;8.38;;;;;;;14.44;100.00;97061.88;5043702;28;20536;-75
2022/09/05 05:21:55;;;;;;;17.55;8.30;;;;;;;14.43;100.00;97064.84;5042556;28;20197;-75
2022/09/05 05:24:34;;;;;;;16.60;8.90;;;;;;;14.42;100.00;97058.66;5043208;28;20141;-75
2022/09/05 05:27:15;;;;;;;20.02;8.50;;;;;;;14.47;100.00;97065.97;5029388;28;20037;-75
2022/09/05 05:30:05;;;;;;;15.30;8.23;;;;;;;14.46;100.00;97065.16;5042066;28;20055;-75
2022/09/05 05:32:35;;;;;;;22.10;8.13;;;;;;;14.56;100.00;97066.31;5038497;28;20041;-75
2022/09/05 05:35:08;;;;;;;16.77;8.55;;;;;;;14.64;100.00;97068.53;5045313;28;20048;-75
2022/09/05 05:37:39;;;;;;;16.90;7.60;;;;;;;14.69;100.00;97065.84;5041996;28;20233;-74
2022/09/05 05:40:14;;;;;;;12.88;7.70;;;;;;;14.72;100.00;97068.84;5042799;28;20036;-74
2022/09/05 05:42:41;;;;;;;15.40;7.95;;;;;;;14.84;100.00;97068.63;5042125;28;20036;-75
2022/09/05 05:45:27;;;;;;;15.27;7.85;;;;;;;14.95;100.00;97058.75;5064470;28;20039;-74
2022/09/05 05:48:26;;;;;;;17.27;7.93;;;;;;;15.02;100.00;97068.22;5039397;28;20387;-75
2022/09/05 05:51:22;;;;;;;17.45;7.38;;;;;;;15.16;100.00;97065.84;5030919;28;20073;-75
2022/09/05 05:54:00;;;;;;;15.52;7.53;;;;;;;15.26;100.00;97065.91;5045181;28;20044;-75
2022/09/05 05:56:50;;;;;;;12.68;7.35;;;;;;;15.39;100.00;97064.59;5043696;28;20141;-75
2022/09/05 05:59:25;;;;;;;15.80;7.90;;;;;;;15.50;100.00;97068.16;5044060;28;20033;-75
2022/09/05 06:02:28;;;;;;;13.45;7.32;;;;;;;15.65;100.00;97070.91;5045386;28;20172;-75
2022/09/05 06:05:08;;;;;;;20.83;8.13;;;;;;;15.79;100.00;97069.31;5052339;28;20783;-76
2022/09/05 06:07:52;;;;;;;18.00;6.32;;;;;;;15.91;100.00;97071.78;5052249;28;20106;-75
2022/09/05 06:10:52;;;;;;;12.43;6.32;;;;;;;16.06;100.00;97073.69;5053899;28;20094;-76
2022/09/05 06:13:18;;;;;;;11.45;5.53;;;;;;;16.15;100.00;97066.66;5052521;28;20044;-75
2022/09/05 06:15:56;;;;;;;11.55;5.07;;;;;;;16.36;100.00;97073.72;5053585;28;20035;-75
2022/09/05 06:18:47;;;;;;;13.52;5.82;;;;;;;16.54;100.00;97076.94;5052933;28;20234;-75
2022/09/05 06:21:37;;;;;;;12.02;4.95;;;;;;;16.78;100.00;97059.09;5052444;28;20330;-75
2022/09/05 06:24:15;;;;;;;12.03;5.03;;;;;;;16.92;100.00;97057.44;5056130;28;20036;-76
2022/09/05 06:27:27;;;;;;;10.40;4.93;;;;;;;17.07;100.00;97062.00;5028061;28;20464;-76
2022/09/05 06:30:02;;;;;;;9.45;4.90;;;;;;;17.20;100.00;97064.13;5050866;28;20043;-76
2022/09/05 06:33:02;;;;;;;10.93;4.85;;;;;;;17.40;100.00;97060.53;5053666;28;20335;-75
2022/09/05 06:35:52;;;;;;;14.07;6.60;;;;;;;17.51;100.00;97058.59;5051904;28;20094;-76
2022/09/05 06:38:36;;;;;;;11.98;4.30;;;;;;;17.58;100.00;97058.28;5059704;28;20140;-74
2022/09/05 06:42:00;;;;;;;7.80;4.68;;;;;;;17.53;100.00;97057.22;5056808;28;20040;-74
2022/09/05 06:44:47;;;;;;;10.60;4.07;;;;;;;17.64;100.00;97057.16;4985884;28;20044;-76
2022/09/05 06:47:18;;;;;;;10.18;4.45;;;;;;;17.71;100.00;97063.09;5052848;28;20047;-75
2022/09/05 06:50:06;;;;;;;12.15;4.95;;;;;;;17.80;100.00;97064.94;5055870;28;20466;-75
2022/09/05 06:52:52;;;;;;;7.47;4.22;;;;;;;17.95;100.00;97057.81;5053309;28;20471;-75
2022/09/05 06:55:39;;;;;;;8.23;4.57;;;;;;;18.11;100.00;97067.44;5026612;28;20491;-76
2022/09/05 06:58:23;;;;;;;7.45;4.57;;;;;;;18.24;100.00;97063.31;5050080;28;20044;-75
2022/09/05 07:00:53;;;;;;;10.48;4.57;;;;;;;18.34;100.00;97068.63;5052929;28;20383;-76
2022/09/05 07:03:38;;;;;;;7.88;4.32;;;;;;;18.42;100.00;97067.22;5052203;28;20392;-75
2022/09/05 07:06:06;;;;;;;9.63;4.50;;;;;;;18.50;100.00;97063.91;5046263;28;20044;-76
2022/09/05 07:08:50;;;;;;;13.70;4.95;;;;;;;18.57;100.00;97064.38;5057439;28;20068;-76
2022/09/05 07:11:24;;;;;;;10.02;5.90;;;;;;;18.64;100.00;97071.09;5057582;28;20045;-75
2022/09/05 07:14:00;;;;;;;12.10;6.32;;;;;;;18.77;100.00;97063.44;5086432;27;20159;-76
2022/09/05 07:16:46;;;;;;;14.13;6.03;;;;;;;18.88;100.00;97064.94;5054199;28;20051;-75
2022/09/05 07:19:31;;;;;;;12.23;6.15;;;;;;;18.95;100.00;97072.72;5054630;28;20481;-75
2022/09/05 07:22:12;;;;;;;9.70;4.93;;;;;;;19.05;100.00;97070.69;5044105;28;20044;-75
2022/09/05 07:24:43;;;;;;;9.38;4.65;;;;;;;19.15;100.00;97067.09;5060115;28;20245;-75
2022/09/05 07:27:24;;;;;;;9.30;4.38;;;;;;;19.29;100.00;97070.69;5053823;28;20044;-75
2022/09/05 07:29:55;;;;;;;12.43;5.50;;;;;;;19.39;100.00;97062.47;5059790;28;20043;-75
2022/09/05 07:32:23;;;;;;;9.20;4.32;;;;;;;19.49;100.00;97065.03;5046143;28;20036;-75
2022/09/05 07:34:50;;;;;;;7.38;4.30;;;;;;;19.61;100.00;97061.94;5056767;28;20054;-75
2022/09/05 07:37:22;;;;;;;9.80;4.25;;;;;;;19.75;100.00;97065.53;5055698;28;20067;-75
2022/09/05 07:39:55;;;;;;;8.90;4.50;;;;;;;19.87;100.00;97073.25;5075287;28;20048;-76
2022/09/05 07:42:38;;;;;;;8.98;4.20;;;;;;;19.96;100.00;97062.53;5056617;28;20702;-75
2022/09/05 07:45:09;;;;;;;6.90;4.45;;;;;;;20.07;100.00;97064.00;5055635;28;20045;-75
2022/09/05 07:47:43;;;;;;;7.72;4.28;;;;;;;20.18;100.00;97065.47;5086469;27;20456;-75
2022/09/05 07:50:11;;;;;;;10.75;4.25;;;;;;;20.25;100.00;97065.91;5056609;28;20044;-75
2022/09/05 07:52:41;;;;;;;11.43;4.13;;;;;;;20.32;100.00;97068.25;5057404;28;20433;-75
2022/09/05 07:55:30;;;;;;;9.50;5.05;;;;;;;20.46;100.00;97063.69;5066358;28;20128;-75
2022/09/05 07:58:00;;;;;;;11.02;4.65;;;;;;;20.54;100.00;97071.19;5058064;28;20045;-75
2022/09/05 08:00:28;;;;;;;7.28;3.75;;;;;;;20.60;100.00;97066.44;5058098;28;20403;-76
2022/09/05 08:02:56;;;;;;;6.47;4.22;;;;;;;20.61;100.00;97068.06;5057515;28;20049;-76
2022/09/05 08:05:24;;;;;;;12.02;3.97;;;;;;;20.74;100.00;97074.63;5061965;28;20147;-76
2022/09/05 08:08:06;;;;;;;10.65;4.13;;;;;;;20.86;100.00;97070.34;5057791;28;20086;-76
2022/09/05 08:10:35;;;;;;;18.30;4.20;;;;;;;;;;5062879;28;20049;-76
2022/09/05 08:13:10;;;;;;;14.63;4.20;;;;;;;20.98;100.00;97071.75;5058873;28;20561;-76
2022/09/05 08:15:37;;;;;;;12.15;4.43;;;;;;;21.12;100.00;97073.41;5055140;28;20102;-76
2022/09/05 08:18:35;;;;;;;11.85;4.45;;;;;;;21.20;100.00;97071.09;5058261;28;20413;-75
2022/09/05 08:21:09;;;;;;;14.38;4.18;;;;;;;21.27;100.00;97057.88;5055741;28;20044;-76
2022/09/05 08:23:57;;;;;;;14.05;3.72;;;;;;;21.39;100.00;97072.59;5053911;28;20645;-76
2022/09/05 08:26:37;;;;;;;8.07;3.70;;;;;;;21.34;100.00;97059.13;5057255;28;20652;-76
2022/09/05 08:29:35;;;;;;;6.90;3.58;;;;;;;21.41;100.00;97064.16;5034500;28;20044;-76
2022/09/05 08:32:08;;;;;;;11.88;4.45;;;;;;;21.49;100.00;97062.66;5040605;28;20513;-76
2022/09/05 08:34:34;;;;;;;15.52;3.38;;;;;;;21.56;98.40;97057.59;5039973;28;20063;-76
2022/09/05 08:37:01;;;;;;;8.25;3.75;;;;;;;21.70;97.79;97059.16;5055102;28;20463;-76
2022/09/05 08:39:28;;;;;;;6.43;3.60;;;;;;;21.80;95.72;97060.88;5057090;28;20039;-77
2022/09/05 08:42:24;;;;;;;6.57;3.42;;;;;;;21.83;96.04;97062.19;5054648;28;20151;-76
2022/09/05 08:45:16;;;;;;;6.85;3.25;;;;;;;22.00;94.10;97062.34;5059150;28;20303;-75
2022/09/05 08:47:48;;;;;;;6.57;2.92;;;;;;;22.00;90.00;97056.06;5057914;28;20074;-76
2022/09/05 08:50:38;;;;;;;7.82;3.10;;;;;;;22.08;89.65;97055.38;5055621;28;20390;-76
2022/09/05 08:53:31;;;;;;;8.05;2.97;;;;;;;22.10;83.07;97058.59;5055396;28;20040;-76
2022/09/05 08:56:05;;;;;;;7.93;3.00;;;;;;;22.31;89.17;97045.28;5057996;28;20040;-76
2022/09/05 08:58:42;;;;;;;7.97;3.05;;;;;;;22.42;91.08;97055.66;5050575;28;20040;-76
2022/09/05 09:01:32;;;;;;;9.85;3.63;;;;;;;22.52;92.11;97049.13;5053835;28;20330;-75
2022/09/05 09:04:22;;;;;;;7.47;2.95;;;;;;;22.69;90.81;97049.25;5054627;28;20079;-76
2022/09/05 09:06:48;;;;;;;11.43;3.15;;;;;;;22.72;90.32;97047.81;5056494;28;20386;-76
2022/09/05 09:09:32;;;;;;;7.90;3.17;;;;;;;22.78;89.22;97041.09;5057413;28;20268;-76
2022/09/05 09:12:06;;;;;;;12.20;3.10;;;;;;;22.90;87.79;97044.09;5051805;28;20135;-76
2022/09/05 09:14:53;;;;;;;6.70;2.80;;;;;;;22.88;88.63;97050.97;5053789;28;20490;-76
2022/09/05 09:17:25;;;;;;;5.78;2.83;;;;;;;22.92;86.78;97041.84;5030525;28;20040;-76
2022/09/05 09:20:03;;;;;;;9.45;2.88;;;;;;;22.86;86.16;97045.81;5056753;28;20044;-76
2022/09/05 09:22:47;;;;;;;8.07;2.72;;;;;;;23.03;86.94;97032.28;5055430;28;20063;-76
2022/09/05 09:25:15;;;;;;;10.27;3.35;;;;;;;23.14;86.36;97032.81;5044637;28;20036;-76
2022/09/05 09:28:13;;;;;;;5.72;2.63;;;;;;;23.31;86.71;97038.31;5053635;28;20036;-76
2022/09/05 09:30:45;;;;;;;7.38;2.60;;;;;;;23.52;86.46;97027.63;5014220;28;20615;-75
2022/09/05 09:33:23;;;;;;;7.22;2.63;;;;;;;23.65;86.50;97030.53;5031487;28;20444;-76
2022/09/05 09:35:56;;;;;;;7.13;3.35;;;;;;;23.71;84.38;97018.34;5055672;28;20279;-75
2022/09/05 09:38:33;;;;;;;6.47;3.10;;;;;;;23.92;84.21;97030.28;5052396;28;20131;-76
2022/09/05 09:41:44;;;;;;;8.23;2.70;;;;;;;23.99;82.86;97029.78;5054798;28;20407;-76
2022/09/05 09:44:10;;;;;;;;;;;;;;;24.05;81.12;97023.06;5042626;28;20407;-76
2022/09/05 09:46:44;;;;;;;6.50;2.88;;;;;;;24.16;81.36;97021.59;5055991;28;20485;-75
2022/09/05 09:49:38;;;;;;;5.70;2.60;;;;;;;24.35;78.80;97024.00;5052810;28;20036;-75
2022/09/05 09:52:29;;;;;;;6.03;2.70;;;;;;;24.33;77.10;97029.00;5048778;28;20056;-76
2022/09/05 09:55:39;;;;;;;13.57;3.22;;;;;;;24.42;75.80;97016.13;5056014;28;20094;-76
2022/09/05 09:58:10;;;;;;;5.55;2.78;;;;;;;24.63;73.45;97008.03;5054219;28;20102;-76
2022/09/05 10:00:56;;;;;;;;;;;;;;;24.83;70.21;97012.00;5055532;28;20530;-76
2022/09/05 10:03:48;;;;;;;5.97;2.60;;;;;;;25.04;69.95;97018.38;5030312;28;20011;-76
2022/09/05 10:06:13;;;;;;;6.47;2.60;;;;;;;25.09;71.78;97001.78;5041742;28;20714;-76
2022/09/05 10:09:00;;;;;;;7.13;2.83;;;;;;;25.59;67.57;97002.97;5056806;28;20037;-76
2022/09/05 10:11:40;;;;;;;5.47;2.63;;;;;;;25.94;60.18;97000.81;5052949;28;20060;-76
2022/09/05 10:14:24;;;;;;;6.15;3.00;;;;;;;25.93;62.22;97007.44;5053864;28;20036;-75
2022/09/05 10:17:09;;;;;;;5.47;2.60;;;;;;;26.17;56.78;96998.53;5054162;28;20093;-76
2022/09/05 10:20:19;;;;;;;7.85;2.80;;;;;;;26.21;48.42;97002.97;5052871;28;20039;-76
2022/09/05 10:23:26;;;;;;;6.85;2.70;;;;;;;26.96;51.65;96985.63;5045710;28;20052;-76
2022/09/05 10:26:24;;;;;;;9.77;2.50;;;;;;;26.80;47.73;96989.03;5055999;28;20068;-76
2022/09/05 10:29:10;;;;;;;5.85;3.05;;;;;;;26.92;48.19;96988.22;5042976;28;20044;-76
2022/09/05 10:31:58;;;;;;;5.35;2.40;;;;;;;27.17;48.67;96989.09;5072630;28;20355;-76
2022/09/05 10:34:28;;;;;;;8.02;2.88;;;;;;;27.18;47.48;96996.19;5074654;28;20047;-76
2022/09/05 10:37:03;;;;;;;6.50;3.03;;;;;;;28.03;46.45;96981.53;4720160;28;10000836;-77
2022/09/05 10:39:34;;;;;;;5.63;2.60;;;;;;;28.27;43.05;96988.91;5072921;28;20046;-77
2022/09/05 10:42:03;;;;;;;5.03;2.70;;;;;;;29.69;40.89;96984.28;5073002;28;20031;-77
2022/09/05 10:44:44;;;;;;;4.88;2.70;;;;;;;31.91;35.07;96971.72;5073077;28;20288;-77
2022/09/05 10:47:38;;;;;;;9.18;2.65;;;;;;;31.49;32.80;96972.69;5070319;28;20035;-77
2022/09/05 10:50:07;;;;;;;6.10;2.40;;;;;;;28.41;38.41;96983.03;5070666;28;20120;-77
2022/09/05 10:53:01;;;;;;;5.82;2.33;;;;;;;30.02;36.44;96977.50;5070019;28;20084;-77
2022/09/05 10:56:07;;;;;;;6.75;2.90;;;;;;;28.26;40.57;96979.03;5076201;28;20231;-77
2022/09/05 10:58:58;;;;;;;6.45;2.50;;;;;;;31.25;36.73;96983.00;5070319;28;20474;-77
2022/09/05 11:01:24;;;;;;;5.05;2.58;;;;;;;31.14;36.25;96981.22;5070831;28;20044;-77
2022/09/05 11:04:05;;;;;;;10.57;2.90;;;;;;;28.72;41.71;96985.03;5071773;28;20379;-77
2022/09/05 11:06:39;;;;;;;6.75;2.85;;;;;;;28.37;42.63;96976.59;5073399;28;21083;-77
2022/09/05 11:09:11;;;;;;;16.83;3.00;;;;;;;28.26;44.59;96968.03;5070724;28;20529;-77
2022/09/05 11:11:59;;;;;;;6.45;2.60;;;;;;;32.49;34.61;96951.88;5070844;28;20063;-77
2022/09/05 11:14:43;;;;;;;5.40;2.10;;;;;;;34.14;27.52;96957.50;5056240;28;20032;-77
2022/09/05 11:17:38;;;;;;;5.45;2.08;;;;;;;31.45;26.88;96961.59;5060272;28;20814;-78
2022/09/05 11:20:21;;;;;;;7.95;2.50;;;;;;;35.61;25.66;96956.53;5071416;28;20609;-79
2022/09/05 11:22:53;;;;;;;5.07;2.50;;;;;;;34.37;28.67;96946.88;5070488;28;20075;-78
2022/09/05 11:25:26;;;;;;;10.43;2.50;;;;;;;36.66;25.07;96945.41;5072081;28;20032;-78
2022/09/05 11:27:54;;;;;;;4.68;2.00;;;;;;;37.05;22.79;96939.59;5069540;28;20040;-78
2022/09/05 11:30:32;;;;;;;4.88;2.55;;;;;;;37.33;21.77;96941.34;5042578;28;20041;-78
2022/09/05 11:33:14;;;;;;;6.32;2.55;;;;;;;39.22;22.49;96938.97;5068475;28;20483;-78
2022/09/05 11:35:39;;;;;;;4.78;1.58;;;;;;;37.73;18.91;96938.94;5072684;28;20051;-77
2022/09/05 11:38:48;;;;;;;3.20;1.55;;;;;;;37.48;18.49;96935.63;5067211;28;20097;-77
2022/09/05 11:41:16;;;;;;;4.28;1.55;;;;;;;38.87;18.15;96937.50;5073376;28;20044;-77
2022/09/05 11:44:03;;;;;;;4.18;1.70;;;;;;;39.96;17.72;96935.22;5072569;28;20050;-77
2022/09/05 11:46:35;;;;;;;3.22;1.55;;;;;;;37.40;18.86;96934.13;5071687;28;20481;-77
2022/09/05 11:49:46;;;;;;;3.67;1.92;;;;;;;38.37;19.49;96941.03;5069776;28;20145;-78
2022/09/05 11:52:39;;;;;;;4.93;2.08;;;;;;;39.60;19.02;96929.50;5020049;28;20056;-77
2022/09/05 11:55:31;;;;;;;3.92;1.80;;;;;;;40.71;17.86;96931.66;5105917;27;20063;-78
2022/09/05 11:58:23;;;;;;;4.40;1.88;;;;;;;39.07;19.21;96931.19;5073277;28;20852;-78
2022/09/05 12:01:32;;;;;;;5.65;2.30;;;;;;;40.43;18.50;96935.06;5078605;28;20387;-78
2022/09/05 12:04:23;;;;;;;3.95;2.25;;;;;;;43.22;16.24;96927.03;5050565;28;20036;-78
2022/09/05 12:06:55;;;;;;;6.10;2.03;;;;;;;43.80;17.00;96925.88;5073997;28;20044;-78
2022/09/05 12:09:39;;;;;;;3.60;1.80;;;;;;;44.06;15.22;96926.53;5079324;28;20055;-78
2022/09/05 12:12:25;;;;;;;4.18;1.80;;;;;;;44.47;15.44;96931.03;5079312;28;20074;-77
2022/09/05 12:15:10;;;;;;;4.45;2.17;;;;;;;44.47;15.23;96925.38;5064781;28;20554;-77
2022/09/05 12:18:01;;;;;;;5.28;2.05;;;;;;;45.49;14.93;96911.16;5081290;28;20042;-78
2022/09/05 12:20:54;;;;;;;7.05;2.17;;;;;;;42.18;15.26;96923.84;5078167;28;20028;-78
2022/09/05 12:23:36;;;;;;;5.85;2.20;;;;;;;43.01;15.88;96913.69;5059274;28;20040;-78
2022/09/05 12:26:12;;;;;;;6.28;1.90;;;;;;;41.54;16.37;96922.00;5050773;28;20490;-78
2022/09/05 12:28:48;;;;;;;5.28;2.38;;;;;;;42.86;15.50;96901.28;5045606;28;20048;-78
2022/09/05 12:31:24;;;;;;;7.25;2.17;;;;;;;45.29;14.84;96900.28;5052698;28;20043;-78
2022/09/05 12:33:50;;;;;;;10.25;2.55;;;;;;;46.64;14.41;96906.78;5080278;28;20047;-78
2022/09/05 12:36:34;;;;;;;5.78;2.00;;;;;;;46.10;13.71;96903.63;5077510;28;20499;-77
2022/09/05 12:39:24;;;;;;;7.10;2.65;;;;;;;41.25;17.66;96916.31;5061989;28;20236;-77
2022/09/05 12:42:08;;;;;;;4.75;2.53;;;;;;;40.37;18.96;96903.94;5080161;28;20225;-77
2022/09/05 12:44:57;;;;;;;7.57;2.50;;;;;;;40.10;19.33;96912.56;5078828;28;20043;-77
2022/09/05 12:47:28;;;;;;;4.47;2.45;;;;;;;40.60;19.56;96903.84;5055937;28;20283;-77